Time;durP1;ratioP1;P1;durP2;ratioP2;P2;SDS_P1;SDS_P2;PMS_P1;PMS_P2;Temp;Humidity;BMP_temperature;BMP_pressure;BME280_temperature;BME280_humidity;BME280_pressure;Samples;Min_cycle;Max_cycle;Signal;HPM_P1;HPM_P2
2023/06/02 00:01:37;;;;;;;14.48;2.90;;;;;;;;;;5028901;28;20496;-91
2023/06/02 00:04:05;;;;;;;13.18;2.88;;;;;;;;;;5014689;28;20029;-91
2023/06/02 00:06:33;;;;;;;14.98;3.08;;;;;;;;;;5034790;28;20048;-90
2023/06/02 00:09:00;;;;;;;17.00;3.70;;;;;;;;;;4999279;28;20050;-91
2023/06/02 00:11:36;;;;;;;11.70;2.75;;;;;;;;;;5032320;28;20049;-91
2023/06/02 00:14:03;;;;;;;16.92;3.25;;;;;;;;;;5029770;28;20046;-91
2023/06/02 00:16:29;;;;;;;15.05;3.00;;;;;;;;;;5012488;28;20046;-91
2023/06/02 00:18:57;;;;;;;15.68;3.28;;;;;;;;;;5011897;28;20046;-91
2023/06/02 00:21:31;;;;;;;16.92;3.65;;;;;;;;;;5030343;28;20050;-91
2023/06/02 00:23:57;;;;;;;18.48;3.30;;;;;;;;;;5030394;28;20049;-89
2023/06/02 00:26:23;;;;;;;15.52;3.38;;;;;;;;;;5001502;28;20053;-89
2023/06/02 00:28:56;;;;;;;14.15;3.10;;;;;;;;;;4999461;28;20052;-90
2023/06/02 00:31:25;;;;;;;14.57;3.10;;;;;;;;;;5030477;28;20057;-90
2023/06/02 00:34:01;;;;;;;;;;;;;;;;;;;;;
2023/06/02 00:36:28;;;;;;;21.42;3.67;;;;;;;;;;5011738;28;20053;-91
2023/06/02 00:38:57;;;;;;;13.02;3.28;;;;;;;;;;4997838;28;20057;-90
2023/06/02 00:41:23;;;;;;;15.98;3.25;;;;;;;;;;5034739;28;20037;-91
2023/06/02 00:43:52;;;;;;;19.23;3.03;;;;;;;;;;5032759;28;20057;-91
2023/06/02 00:46:18;;;;;;;16.13;3.20;;;;;;;;;;4982872;28;20049;-88
2023/06/02 00:48:50;;;;;;;17.13;3.60;;;;;;;;;;5002957;28;20069;-90
2023/06/02 00:51:20;;;;;;;14.23;3.63;;;;;;;;;;5008510;28;20050;-91
2023/06/02 00:53:56;;;;;;;13.95;3.45;;;;;;;;;;4976837;28;20070;-91
2023/06/02 00:56:35;;;;;;;;;;;;;;;;;;;;;
2023/06/02 00:59:04;;;;;;;16.55;3.42;;;;;;;;;;5021355;28;20065;-92
2023/06/02 01:01:35;;;;;;;18.13;3.53;;;;;;;;;;5018944;28;20066;-91
2023/06/02 01:04:11;;;;;;;15.98;3.63;;;;;;;;;;4996879;28;20077;-92
2023/06/02 01:06:38;;;;;;;17.17;3.22;;;;;;;;;;4996022;28;20054;-91
2023/06/02 01:09:05;;;;;;;20.20;3.13;;;;;;;;;;5018089;28;20045;-91
2023/06/02 01:11:35;;;;;;;18.58;3.45;;;;;;;;;;5035016;28;20384;-91
2023/06/02 01:14:02;;;;;;;17.23;3.00;;;;;;;;;;5038302;28;20022;-90
2023/06/02 01:16:35;;;;;;;20.98;3.60;;;;;;;;;;5032916;28;20069;-91
2023/06/02 01:19:06;;;;;;;19.17;3.53;;;;;;;;;;5015618;28;20042;-91
2023/06/02 01:21:42;;;;;;;21.13;3.50;;;;;;;;;;5031954;28;20073;-92
2023/06/02 01:24:09;;;;;;;19.10;3.30;;;;;;;;;;5015593;28;20038;-91
2023/06/02 01:26:38;;;;;;;16.52;3.05;;;;;;;;;;5014948;28;20129;-90
2023/06/02 01:29:25;;;;;;;18.73;4.35;;;;;;;;;;5033019;28;20049;-92
2023/06/02 01:31:53;;;;;;;18.70;3.25;;;;;;;;;;5015387;28;20125;-92
2023/06/02 01:34:33;;;;;;;23.13;3.47;;;;;;;;;;4997962;28;20069;-91
2023/06/02 01:37:10;;;;;;;16.67;3.30;;;;;;;;;;5014701;28;20069;-92
2023/06/02 01:39:37;;;;;;;18.70;3.50;;;;;;;;;;5032447;28;20061;-90
2023/06/02 01:42:15;;;;;;;;;;;;;;;;;;;;;
2023/06/02 01:44:50;;;;;;;13.25;3.00;;;;;;;;;;5034807;28;20050;-92
2023/06/02 01:47:17;;;;;;;15.98;3.15;;;;;;;;;;4997418;28;20046;-92
2023/06/02 01:49:45;;;;;;;18.58;3.30;;;;;;;;;;5004212;28;20456;-90
2023/06/02 01:52:21;;;;;;;14.77;3.13;;;;;;;;;;4985657;28;20050;-91
2023/06/02 01:54:48;;;;;;;13.02;3.38;;;;;;;;;;4995955;28;20050;-90
2023/06/02 01:57:20;;;;;;;20.13;3.15;;;;;;;;;;5031824;28;20065;-89
2023/06/02 01:59:46;;;;;;;17.00;3.40;;;;;;;;;;5031271;28;20440;-91
2023/06/02 02:02:15;;;;;;;16.83;3.22;;;;;;;;;;4998790;28;20050;-92
2023/06/02 02:04:43;;;;;;;15.70;3.55;;;;;;;;;;5031763;28;20046;-91
2023/06/02 02:07:12;;;;;;;16.10;3.35;;;;;;;;;;5031061;28;20038;-92
2023/06/02 02:09:46;;;;;;;21.98;4.10;;;;;;;;;;5014169;28;20046;-91
2023/06/02 02:12:15;;;;;;;17.67;3.47;;;;;;;;;;4999664;28;20050;-92
2023/06/02 02:14:44;;;;;;;17.00;3.05;;;;;;;;;;5022343;28;20045;-92
2023/06/02 02:17:28;;;;;;;18.45;3.60;;;;;;;;;;5018960;28;20073;-90
2023/06/02 02:19:56;;;;;;;20.10;3.45;;;;;;;;;;5036063;28;20068;-90
2023/06/02 02:22:23;;;;;;;14.32;3.25;;;;;;;;;;5001268;28;20053;-91
2023/06/02 02:24:50;;;;;;;17.30;3.53;;;;;;;;;;5014002;28;20053;-91
2023/06/02 02:27:18;;;;;;;17.05;3.30;;;;;;;;;;5006284;28;20050;-91
2023/06/02 02:29:47;;;;;;;23.88;3.80;;;;;;;;;;4994929;28;20116;-92
2023/06/02 02:32:18;;;;;;;;;;;;;;;;;;5025516;28;20124;-92
2023/06/02 02:34:46;;;;;;;18.85;3.20;;;;;;;;;;5032239;28;19929;-91
2023/06/02 02:37:13;;;;;;;20.20;2.92;;;;;;;;;;5014734;28;20042;-91
2023/06/02 02:39:41;;;;;;;19.25;3.60;;;;;;;;;;5014167;28;20065;-90
2023/06/02 02:42:12;;;;;;;21.25;3.65;;;;;;;;;;5017598;28;20077;-90
2023/06/02 02:44:39;;;;;;;22.95;3.88;;;;;;;;;;5039688;28;20204;-91
2023/06/02 02:47:05;;;;;;;20.00;3.35;;;;;;;;;;5022613;28;20095;-90
2023/06/02 02:49:31;;;;;;;18.08;3.03;;;;;;;;;;5032474;28;20049;-91
2023/06/02 02:51:57;;;;;;;16.02;3.30;;;;;;;;;;5029442;28;20415;-91
2023/06/02 02:54:28;;;;;;;14.98;2.97;;;;;;;;;;5012126;28;20056;-92
2023/06/02 02:57:04;;;;;;;;;;;;;;;;;;;;;
2023/06/02 02:59:33;;;;;;;19.83;3.30;;;;;;;;;;5012408;28;20053;-91
2023/06/02 03:01:59;;;;;;;21.33;3.65;;;;;;;;;;5029944;28;20048;-91
2023/06/02 03:04:25;;;;;;;22.02;3.58;;;;;;;;;;5012228;28;20049;-92
2023/06/02 03:06:57;;;;;;;22.88;3.30;;;;;;;;;;5029386;28;20038;-91
2023/06/02 03:09:27;;;;;;;17.77;3.10;;;;;;;;;;5012205;28;20125;-90
2023/06/02 03:11:53;;;;;;;14.20;3.25;;;;;;;;;;5013113;28;20042;-90
2023/06/02 03:14:24;;;;;;;20.00;3.67;;;;;;;;;;5018215;28;20142;-90
2023/06/02 03:16:50;;;;;;;16.35;3.20;;;;;;;;;;5033517;28;20488;-91
2023/06/02 03:19:24;;;;;;;21.67;3.45;;;;;;;;;;5028440;28;20053;-91
2023/06/02 03:21:55;;;;;;;19.45;3.63;;;;;;;;;;5028335;28;20420;-91
2023/06/02 03:24:24;;;;;;;23.13;3.95;;;;;;;;;;5027523;28;20048;-90
2023/06/02 03:27:13;;;;;;;20.13;3.03;;;;;;;;;;5009984;28;20057;-91
2023/06/02 03:29:49;;;;;;;19.30;3.70;;;;;;;;;;5027843;28;20050;-92
2023/06/02 03:32:25;;;;;;;20.67;3.38;;;;;;;;;;5010807;28;20042;-91
2023/06/02 03:34:52;;;;;;;19.35;3.72;;;;;;;;;;5027981;28;20052;-90
2023/06/02 03:37:20;;;;;;;17.08;3.40;;;;;;;;;;4993959;28;20046;-91
2023/06/02 03:39:46;;;;;;;17.52;3.40;;;;;;;;;;5010027;28;20042;-90
2023/06/02 03:42:14;;;;;;;21.55;3.53;;;;;;;;;;5028631;28;20025;-90
2023/06/02 03:44:46;;;;;;;20.95;3.65;;;;;;;;;;5028660;28;20046;-91
2023/06/02 03:47:12;;;;;;;19.60;3.40;;;;;;;;;;5010351;28;20060;-91
2023/06/02 03:49:38;;;;;;;21.45;3.58;;;;;;;;;;5021811;28;20037;-91
2023/06/02 03:52:05;;;;;;;18.35;3.42;;;;;;;;;;5008738;28;20050;-92
2023/06/02 03:54:31;;;;;;;22.85;3.63;;;;;;;;;;5009897;28;20046;-91
2023/06/02 03:57:04;;;;;;;16.73;3.00;;;;;;;;;;5010411;28;20338;-91
2023/06/02 03:59:35;;;;;;;15.68;2.92;;;;;;;;;;5008942;28;20141;-90
2023/06/02 04:02:09;;;;;;;20.45;3.78;;;;;;;;;;5011190;28;20045;-91
2023/06/02 04:04:36;;;;;;;21.85;3.65;;;;;;;;;;5010174;28;20102;-91
2023/06/02 04:07:22;;;;;;;18.13;3.78;;;;;;;;;;5029522;28;20088;-93
2023/06/02 04:09:50;;;;;;;25.38;3.70;;;;;;;;;;5010400;28;20046;-91
2023/06/02 04:12:19;;;;;;;23.17;3.78;;;;;;;;;;5013265;28;20081;-89
2023/06/02 04:14:54;;;;;;;18.08;3.42;;;;;;;;;;5032138;28;20046;-91
2023/06/02 04:17:25;;;;;;;21.08;3.35;;;;;;;;;;5011787;28;20038;-91
2023/06/02 04:19:54;;;;;;;19.38;3.35;;;;;;;;;;5010441;28;20110;-92
2023/06/02 04:22:23;;;;;;;14.50;3.22;;;;;;;;;;5025588;28;20045;-91
2023/06/02 04:24:52;;;;;;;19.77;3.70;;;;;;;;;;5031180;28;20034;-89
2023/06/02 04:27:18;;;;;;;22.60;3.30;;;;;;;;;;5003482;28;20077;-92
2023/06/02 04:29:45;;;;;;;20.90;3.35;;;;;;;;;;4997119;28;20053;-90
2023/06/02 04:32:18;;;;;;;22.58;4.07;;;;;;;;;;5017740;28;20045;-91
2023/06/02 04:34:56;;;;;;;19.08;3.50;;;;;;;;;;5015946;28;20053;-92
2023/06/02 04:37:32;;;;;;;22.17;3.42;;;;;;;;;;5019410;28;20030;-90
2023/06/02 04:40:01;;;;;;;17.90;3.40;;;;;;;;;;5045262;28;20057;-89
2023/06/02 04:42:28;;;;;;;14.50;3.38;;;;;;;;;;5035206;28;20042;-91
2023/06/02 04:45:00;;;;;;;19.40;3.50;;;;;;;;;;5032111;28;20125;-91
2023/06/02 04:47:34;;;;;;;22.05;3.95;;;;;;;;;;5014832;28;20065;-92
2023/06/02 04:50:03;;;;;;;17.98;3.72;;;;;;;;;;5030408;28;20172;-91
2023/06/02 04:52:31;;;;;;;20.95;3.80;;;;;;;;;;5013697;28;20500;-91
2023/06/02 04:55:02;;;;;;;15.98;3.08;;;;;;;;;;5031659;28;20046;-93
2023/06/02 05:00:20;;;;;;;19.73;3.38;;;;;;;;;;4997824;28;20042;-90
2023/06/02 05:02:50;;;;;;;20.23;3.33;;;;;;;;;;4999043;28;20117;-91
2023/06/02 05:05:19;;;;;;;19.52;3.72;;;;;;;;;;5031372;28;20113;-91
2023/06/02 05:07:45;;;;;;;19.98;3.50;;;;;;;;;;5005136;28;20061;-91
2023/06/02 05:10:40;;;;;;;23.15;3.60;;;;;;;;;;5029138;28;20068;-91
2023/06/02 05:13:13;;;;;;;20.92;3.90;;;;;;;;;;5029837;28;20061;-90
2023/06/02 05:15:45;;;;;;;21.67;3.53;;;;;;;;;;4996987;28;20049;-91
2023/06/02 05:18:14;;;;;;;18.45;3.55;;;;;;;;;;5017612;28;20046;-90
2023/06/02 05:20:50;;;;;;;24.73;3.58;;;;;;;;;;5034791;28;20126;-89
2023/06/02 05:23:27;;;;;;;19.85;3.67;;;;;;;;;;5035270;28;20037;-92
2023/06/02 05:25:56;;;;;;;22.58;3.70;;;;;;;;;;5016179;28;20043;-91
2023/06/02 05:28:40;;;;;;;22.83;3.78;;;;;;;;;;5031879;28;20118;-90
2023/06/02 05:31:11;;;;;;;27.77;3.78;;;;;;;;;;5028510;28;20088;-91
2023/06/02 05:34:04;;;;;;;22.52;3.88;;;;;;;;;;5018137;28;20041;-90
2023/06/02 05:36:40;;;;;;;18.63;3.45;;;;;;;;;;5024773;28;20084;-91
2023/06/02 05:39:14;;;;;;;23.67;3.75;;;;;;;;;;5014140;28;20046;-90
2023/06/02 05:41:42;;;;;;;23.15;3.70;;;;;;;;;;4994293;28;20049;-91
2023/06/02 05:44:11;;;;;;;18.45;3.80;;;;;;;;;;5034443;28;20045;-91
2023/06/02 05:46:41;;;;;;;28.98;4.10;;;;;;;;;;4998694;28;20081;-90
2023/06/02 05:49:24;;;;;;;18.92;3.42;;;;;;;;;;5028549;28;20106;-91
2023/06/02 05:51:53;;;;;;;19.58;4.00;;;;;;;;;;5035260;28;20117;-91
2023/06/02 05:54:19;;;;;;;19.80;3.65;;;;;;;;;;5016471;28;20053;-91
2023/06/02 05:56:45;;;;;;;18.65;4.22;;;;;;;;;;5017359;28;20061;-91
2023/06/02 05:59:11;;;;;;;21.75;3.53;;;;;;;;;;5031527;28;20053;-91
2023/06/02 06:01:40;;;;;;;22.35;4.20;;;;;;;;;;5032919;28;20049;-90
2023/06/02 06:04:09;;;;;;;21.33;4.20;;;;;;;;;;5037976;28;20130;-88
2023/06/02 06:06:38;;;;;;;26.00;4.15;;;;;;;;;;5021009;28;20048;-90
2023/06/02 06:09:11;;;;;;;22.30;4.20;;;;;;;;;;5016659;28;20077;-91
2023/06/02 06:11:41;;;;;;;24.88;3.97;;;;;;;;;;5033507;28;20045;-90
2023/06/02 06:14:13;;;;;;;29.80;4.70;;;;;;;;;;5016538;28;20070;-90
2023/06/02 06:16:42;;;;;;;28.67;4.72;;;;;;;;;;5020792;28;20101;-90
2023/06/02 06:19:08;;;;;;;22.08;4.30;;;;;;;;;;5032014;28;20030;-89
2023/06/02 06:21:37;;;;;;;25.88;4.72;;;;;;;;;;5021719;28;20053;-92
2023/06/02 06:24:04;;;;;;;24.13;4.57;;;;;;;;;;4998490;28;20054;-90
2023/06/02 06:26:33;;;;;;;25.00;4.20;;;;;;;;;;5032145;28;20065;-93
2023/06/02 06:29:03;;;;;;;21.02;3.88;;;;;;;;;;5030941;28;20039;-89
2023/06/02 06:31:29;;;;;;;22.45;4.13;;;;;;;;;;5021421;28;20050;-90
2023/06/02 06:33:55;;;;;;;21.42;4.38;;;;;;;;;;5018512;28;20054;-89
2023/06/02 06:36:22;;;;;;;23.23;4.65;;;;;;;;;;5035379;28;20041;-90
2023/06/02 06:38:54;;;;;;;31.95;4.88;;;;;;;;;;5018648;28;20109;-91
2023/06/02 06:41:22;;;;;;;25.52;5.13;;;;;;;;;;5035656;28;20068;-90
2023/06/02 06:43:56;;;;;;;28.85;4.70;;;;;;;;;;5034916;28;20081;-90
2023/06/02 06:46:25;;;;;;;33.22;5.35;;;;;;;;;;5013819;28;20115;-91
2023/06/02 06:48:53;;;;;;;26.15;5.10;;;;;;;;;;5009414;28;20034;-91
2023/06/02 06:51:22;;;;;;;25.23;5.15;;;;;;;;;;5020077;28;20022;-91
2023/06/02 06:53:49;;;;;;;27.88;5.20;;;;;;;;;;4999533;28;20053;-91
2023/06/02 06:56:17;;;;;;;30.10;4.95;;;;;;;;;;5033633;28;20042;-91
2023/06/02 06:58:44;;;;;;;29.70;5.82;;;;;;;;;;5019863;28;20057;-90
2023/06/02 07:01:18;;;;;;;24.02;4.88;;;;;;;;;;4998753;28;20050;-91
2023/06/02 07:03:46;;;;;;;27.60;5.20;;;;;;;;;;5031721;28;20037;-90
2023/06/02 07:06:21;;;;;;;29.60;5.57;;;;;;;;;;5032960;28;20073;-92
2023/06/02 07:08:47;;;;;;;29.23;5.75;;;;;;;;;;5016798;28;20046;-91
2023/06/02 07:11:13;;;;;;;30.80;5.40;;;;;;;;;;5005074;28;20124;-90
2023/06/02 07:13:42;;;;;;;26.88;5.28;;;;;;;;;;5032166;28;20117;-89
2023/06/02 07:16:08;;;;;;;21.23;5.53;;;;;;;;;;4996030;28;20105;-90
2023/06/02 07:18:35;;;;;;;24.77;6.53;;;;;;;;;;4996203;28;20121;-89
2023/06/02 07:21:01;;;;;;;25.75;6.35;;;;;;;;;;5032390;28;20045;-91
2023/06/02 07:23:48;;;;;;;26.35;5.90;;;;;;;;;;5030038;28;20048;-91
2023/06/02 07:26:15;;;;;;;27.85;5.80;;;;;;;;;;5030647;28;20029;-88
2023/06/02 07:28:41;;;;;;;26.85;5.40;;;;;;;;;;5036576;28;20030;-88
2023/06/02 07:31:20;;;;;;;22.83;5.82;;;;;;;;;;5017432;28;20121;-89
2023/06/02 07:33:49;;;;;;;23.75;5.18;;;;;;;;;;5030162;28;20049;-90
2023/06/02 07:36:16;;;;;;;26.58;5.68;;;;;;;;;;5015203;28;20034;-91
2023/06/02 07:38:43;;;;;;;23.13;5.28;;;;;;;;;;4994769;28;20069;-91
2023/06/02 07:41:11;;;;;;;21.77;6.38;;;;;;;;;;5000141;28;20054;-91
2023/06/02 07:46:39;;;;;;;25.35;5.93;;;;;;;;;;5005332;28;20045;-89
2023/06/02 07:49:34;;;;;;;27.80;5.63;;;;;;;;;;5030934;28;20073;-91
2023/06/02 07:52:07;;;;;;;22.25;5.53;;;;;;;;;;5019419;28;20056;-90
2023/06/02 07:54:56;;;;;;;22.88;4.80;;;;;;;;;;5015463;28;20030;-90
2023/06/02 07:57:27;;;;;;;26.60;4.93;;;;;;;;;;5029339;28;20100;-88
2023/06/02 07:59:58;;;;;;;21.05;4.40;;;;;;;;;;5027978;28;20037;-90
2023/06/02 08:02:29;;;;;;;18.95;4.90;;;;;;;;;;5017356;28;20034;-90
2023/06/02 08:05:11;;;;;;;;;;;;;;;;;;;;;
2023/06/02 08:08:09;;;;;;;20.73;4.82;;;;;;;;;;5008943;28;20061;-92
2023/06/02 08:10:37;;;;;;;24.73;5.47;;;;;;;;;;5037313;28;20042;-92
2023/06/02 08:13:11;;;;;;;16.77;3.83;;;;;;;;;;5037871;28;20048;-92
2023/06/02 08:15:42;;;;;;;19.98;4.95;;;;;;;;;;5035633;28;20134;-92
2023/06/02 08:18:18;;;;;;;20.80;4.25;;;;;;;;;;4999142;28;20053;-92
2023/06/02 08:20:52;;;;;;;16.90;4.05;;;;;;;;;;5014077;28;20171;-92
2023/06/02 08:23:29;;;;;;;37.95;7.13;;;;;;;;;;5017263;28;20411;-92
2023/06/02 08:26:03;;;;;;;18.95;4.13;;;;;;;;;;5000030;28;20037;-90
2023/06/02 08:37:00;;;;;;;18.67;4.25;;;;;;;;;;5047242;28;20105;-92
2023/06/02 08:39:29;;;;;;;17.08;3.92;;;;;;;;;;5057774;28;20044;-91
2023/06/02 08:42:18;;;;;;;;;;;;;;;;;;;;;
2023/06/02 08:47:36;;;;;;;13.80;2.72;;;;;;;;;;5051066;28;20059;-91
2023/06/02 08:56:18;;;;;;;19.73;3.38;;;;;;;;;;5063809;28;20038;-93
2023/06/02 08:58:48;;;;;;;18.63;4.07;;;;;;;;;;5056948;28;20045;-92
2023/06/02 09:01:44;;;;;;;15.50;3.40;;;;;;;;;;5067282;28;20055;-92
2023/06/02 09:04:13;;;;;;;16.48;3.70;;;;;;;;;;5035331;28;20042;-91
2023/06/02 09:06:59;;;;;;;;;;;;;;;;;;;;;
2023/06/02 09:09:40;;;;;;;17.45;3.95;;;;;;;;;;5077942;28;20063;-93
2023/06/02 09:12:08;;;;;;;16.42;3.58;;;;;;;;;;5045399;28;20030;-92
2023/06/02 09:14:34;;;;;;;13.70;3.47;;;;;;;;;;5057224;28;20162;-91
2023/06/02 09:17:06;;;;;;;16.88;3.35;;;;;;;;;;5040190;28;20095;-92
2023/06/02 09:20:05;;;;;;;;;;;;;;;;;;;;;
2023/06/02 09:22:55;;;;;;;14.68;3.88;;;;;;;;;;5046439;28;20076;-93
2023/06/02 09:25:43;;;;;;;17.10;3.45;;;;;;;;;;5065603;28;20037;-93
2023/06/02 09:28:12;;;;;;;14.02;3.15;;;;;;;;;;5032466;28;20038;-90
2023/06/02 09:30:46;;;;;;;15.23;3.28;;;;;;;;;;5044452;28;20061;-91
2023/06/02 09:33:14;;;;;;;14.75;3.50;;;;;;;;;;5050293;28;20068;-91
2023/06/02 09:35:53;;;;;;;14.55;3.22;;;;;;;;;;5032008;28;20048;-89
2023/06/02 09:38:39;;;;;;;15.85;3.90;;;;;;;;;;5032031;28;20076;-89
2023/06/02 09:41:33;;;;;;;;;;;;;;;;;;;;;
2023/06/02 09:44:08;;;;;;;12.50;2.88;;;;;;;;;;5033558;28;20124;-88
2023/06/02 09:46:40;;;;;;;14.15;2.97;;;;;;;;;;5021252;28;20037;-89
2023/06/02 09:49:06;;;;;;;;;;;;;;;;;;5023840;28;20054;-88
2023/06/02 09:51:37;;;;;;;11.15;2.88;;;;;;;;;;5045923;28;20272;-89
2023/06/02 09:54:09;;;;;;;11.77;2.92;;;;;;;;;;5021595;28;20168;-89
2023/06/02 09:56:38;;;;;;;10.85;2.53;;;;;;;;;;5049558;28;20053;-90
2023/06/02 09:59:05;;;;;;;11.75;2.80;;;;;;;;;;5021354;28;20109;-89
2023/06/02 10:01:35;;;;;;;12.70;2.70;;;;;;;;;;5015924;28;20042;-90
2023/06/02 10:04:05;;;;;;;11.23;2.42;;;;;;;;;;5045946;28;20053;-90
2023/06/02 10:06:35;;;;;;;12.85;2.92;;;;;;;;;;5020196;28;20076;-90
2023/06/02 10:09:24;;;;;;;10.17;2.87;;;;;;;;;;5025992;28;20050;-89
2023/06/02 10:12:07;;;;;;;11.18;2.50;;;;;;;;;;5026798;28;20042;-90
2023/06/02 10:14:52;;;;;;;11.10;2.22;;;;;;;;;;5031773;28;20055;-90
2023/06/02 10:17:24;;;;;;;8.10;1.83;;;;;;;;;;5014776;28;20117;-90
2023/06/02 10:20:10;;;;;;;8.65;2.10;;;;;;;;;;5031552;28;20048;-90
2023/06/02 10:22:54;;;;;;;8.70;2.13;;;;;;;;;;5017502;28;20050;-90
2023/06/02 10:25:21;;;;;;;10.68;1.77;;;;;;;;;;5021017;28;20037;-89
2023/06/02 10:27:48;;;;;;;8.82;1.73;;;;;;;;;;5049197;28;20038;-88
2023/06/02 10:30:21;;;;;;;10.05;1.90;;;;;;;;;;5012531;28;20045;-91
2023/06/02 10:32:50;;;;;;;7.78;1.80;;;;;;;;;;5046358;28;20053;-89
2023/06/02 10:35:19;;;;;;;8.82;1.80;;;;;;;;;;5045654;28;20496;-89
2023/06/02 10:37:46;;;;;;;10.57;2.05;;;;;;;;;;5050381;28;20071;-90
2023/06/02 10:40:14;;;;;;;4.75;1.45;;;;;;;;;;5050859;28;20101;-90
2023/06/02 10:43:03;;;;;;;7.97;1.83;;;;;;;;;;5048125;28;20048;-89
2023/06/02 10:45:38;;;;;;;8.07;1.48;;;;;;;;;;5022794;28;20447;-89
2023/06/02 10:48:24;;;;;;;6.55;1.55;;;;;;;;;;5028442;28;20049;-88
2023/06/02 10:50:54;;;;;;;8.45;1.60;;;;;;;;;;5016405;28;20046;-87
2023/06/02 10:53:20;;;;;;;9.50;1.50;;;;;;;;;;5042353;28;20050;-88
2023/06/02 10:55:49;;;;;;;5.68;1.55;;;;;;;;;;5046474;28;20500;-90
2023/06/02 10:58:16;;;;;;;5.88;1.73;;;;;;;;;;5047123;28;20049;-88
2023/06/02 11:00:45;;;;;;;5.25;1.55;;;;;;;;;;5027344;28;20099;-88
2023/06/02 11:03:17;;;;;;;7.40;1.50;;;;;;;;;;5035350;28;20078;-87
2023/06/02 11:05:50;;;;;;;5.30;1.58;;;;;;;;;;5033633;28;20053;-85
2023/06/02 11:08:27;;;;;;;5.45;1.42;;;;;;;;;;5040161;28;20093;-85
2023/06/02 11:11:00;;;;;;;10.00;1.85;;;;;;;;;;5043256;28;20128;-89
2023/06/02 11:13:27;;;;;;;7.32;1.50;;;;;;;;;;5044106;28;20071;-89
2023/06/02 11:15:54;;;;;;;6.00;1.50;;;;;;;;;;5026998;28;20042;-87
2023/06/02 11:21:23;;;;;;;8.75;1.92;;;;;;;;;;5029345;28;20112;-89
2023/06/02 11:23:52;;;;;;;8.93;1.98;;;;;;;;;;5045883;28;20064;-89
2023/06/02 11:26:19;;;;;;;6.43;1.63;;;;;;;;;;5013751;28;20049;-89
2023/06/02 11:28:53;;;;;;;5.22;1.40;;;;;;;;;;5031559;28;20117;-88
2023/06/02 11:31:22;;;;;;;5.70;1.60;;;;;;;;;;5042844;28;20057;-89
2023/06/02 11:33:50;;;;;;;4.35;1.52;;;;;;;;;;5033763;28;20096;-88
2023/06/02 11:36:17;;;;;;;5.07;1.60;;;;;;;;;;5049864;28;20025;-89
2023/06/02 11:38:43;;;;;;;6.78;1.38;;;;;;;;;;5024730;28;20053;-88
2023/06/02 11:41:12;;;;;;;5.53;1.50;;;;;;;;;;5032801;28;20117;-88
2023/06/02 11:43:41;;;;;;;5.60;1.58;;;;;;;;;;5028247;28;20133;-88
2023/06/02 11:46:10;;;;;;;6.28;1.67;;;;;;;;;;5040076;28;20064;-87
2023/06/02 11:48:38;;;;;;;6.28;1.70;;;;;;;;;;5042910;28;20069;-86
2023/06/02 11:51:07;;;;;;;7.10;1.70;;;;;;;;;;5040869;28;20045;-88
2023/06/02 11:53:34;;;;;;;7.55;1.60;;;;;;;;;;5044522;28;20029;-87
2023/06/02 11:56:01;;;;;;;5.72;1.50;;;;;;;;;;5041445;28;20061;-88
2023/06/02 11:58:28;;;;;;;4.57;1.40;;;;;;;;;;5048184;28;20056;-87
2023/06/02 12:01:07;;;;;;;6.25;1.77;;;;;;;;;;5045296;28;20041;-87
2023/06/02 12:03:33;;;;;;;4.80;1.65;;;;;;;;;;5041657;28;20056;-89
2023/06/02 12:06:29;;;;;;;6.68;1.67;;;;;;;;;;5035194;28;20093;-88
2023/06/02 12:08:55;;;;;;;5.63;1.52;;;;;;;;;;5009297;28;20061;-88
2023/06/02 12:11:23;;;;;;;6.57;1.58;;;;;;;;;;5041432;28;20084;-87
2023/06/02 12:13:59;;;;;;;7.43;1.90;;;;;;;;;;5026117;28;20081;-85
2023/06/02 12:16:26;;;;;;;5.60;1.80;;;;;;;;;;5024596;28;20054;-87
2023/06/02 12:18:53;;;;;;;7.15;2.05;;;;;;;;;;5034315;28;20076;-87
2023/06/02 12:21:26;;;;;;;5.95;1.77;;;;;;;;;;5029328;28;20440;-88
2023/06/02 12:23:52;;;;;;;6.28;1.60;;;;;;;;;;5042860;28;20113;-87
2023/06/02 12:26:19;;;;;;;7.88;1.83;;;;;;;;;;5039905;28;20063;-85
2023/06/02 12:28:45;;;;;;;6.70;1.83;;;;;;;;;;5038462;28;20045;-85
2023/06/02 12:31:12;;;;;;;5.32;1.90;;;;;;;;;;5035311;28;20038;-85
2023/06/02 12:33:41;;;;;;;5.75;1.40;;;;;;;;;;5041212;28;20053;-86
2023/06/02 12:36:10;;;;;;;4.43;1.48;;;;;;;;;;5049901;28;20095;-86
2023/06/02 12:38:37;;;;;;;6.78;1.30;;;;;;;;;;5064300;28;20048;-85
2023/06/02 12:41:03;;;;;;;5.38;1.55;;;;;;;;;;5002996;28;20038;-88
2023/06/02 12:43:29;;;;;;;7.07;1.65;;;;;;;;;;5025739;28;20121;-88
2023/06/02 12:45:55;;;;;;;8.35;1.83;;;;;;;;;;5023880;28;20049;-86
2023/06/02 12:48:22;;;;;;;6.38;1.73;;;;;;;;;;5045373;28;20041;-87
2023/06/02 12:50:48;;;;;;;36.75;4.50;;;;;;;;;;5027572;28;20472;-87
2023/06/02 12:53:14;;;;;;;47.40;5.22;;;;;;;;;;5029961;28;20037;-87
2023/06/02 12:55:40;;;;;;;7.40;1.75;;;;;;;;;;5032160;28;20053;-85
2023/06/02 12:58:06;;;;;;;13.13;2.30;;;;;;;;;;5021975;28;20046;-87
2023/06/02 13:00:32;;;;;;;7.85;1.90;;;;;;;;;;5042212;28;20467;-88
2023/06/02 13:02:59;;;;;;;10.00;2.13;;;;;;;;;;5040483;28;20042;-87
2023/06/02 13:05:27;;;;;;;7.43;1.80;;;;;;;;;;5046193;28;20063;-88
2023/06/02 13:07:53;;;;;;;7.47;1.80;;;;;;;;;;5029700;28;20124;-87
2023/06/02 13:10:20;;;;;;;9.27;1.88;;;;;;;;;;5041633;28;20145;-87
2023/06/02 13:12:47;;;;;;;8.45;1.80;;;;;;;;;;5044778;28;20042;-87
2023/06/02 13:15:13;;;;;;;6.93;1.77;;;;;;;;;;5045616;28;20041;-89
2023/06/02 13:17:39;;;;;;;7.78;1.88;;;;;;;;;;5047070;28;20029;-87
2023/06/02 13:20:08;;;;;;;4.68;1.42;;;;;;;;;;5043877;28;20053;-87
2023/06/02 13:22:34;;;;;;;6.65;1.90;;;;;;;;;;5044549;28;20050;-87
2023/06/02 13:25:00;;;;;;;5.80;1.75;;;;;;;;;;5047245;28;20050;-88
2023/06/02 13:27:26;;;;;;;4.95;1.35;;;;;;;;;;5017656;28;20057;-88
2023/06/02 13:29:53;;;;;;;7.72;1.70;;;;;;;;;;5009426;28;20050;-86
2023/06/02 13:32:19;;;;;;;6.95;1.60;;;;;;;;;;5042279;28;20060;-87
2023/06/02 13:34:57;;;;;;;5.70;1.70;;;;;;;;;;5039715;28;20057;-87
2023/06/02 13:37:24;;;;;;;9.52;1.90;;;;;;;;;;5029141;28;20037;-87
2023/06/02 13:39:51;;;;;;;5.70;1.35;;;;;;;;;;5027912;28;20050;-87
2023/06/02 13:42:20;;;;;;;9.55;1.80;;;;;;;;;;5028194;28;20049;-87
2023/06/02 13:44:46;;;;;;;7.63;1.40;;;;;;;;;;5036966;28;20057;-87
2023/06/02 13:47:12;;;;;;;8.02;1.73;;;;;;;;;;5008297;28;20042;-85
2023/06/02 13:49:38;;;;;;;4.50;1.50;;;;;;;;;;5035974;28;20046;-88
2023/06/02 13:52:05;;;;;;;6.18;1.80;;;;;;;;;;5043740;28;20491;-86
2023/06/02 13:54:32;;;;;;;9.00;1.60;;;;;;;;;;5032121;28;20052;-87
2023/06/02 13:56:58;;;;;;;5.68;1.63;;;;;;;;;;5028129;28;20069;-87
2023/06/02 13:59:24;;;;;;;7.28;1.90;;;;;;;;;;5012073;28;20500;-88
2023/06/02 14:01:53;;;;;;;7.78;1.85;;;;;;;;;;5038591;28;20038;-87
2023/06/02 14:04:19;;;;;;;7.78;1.65;;;;;;;;;;5015429;28;20045;-87
2023/06/02 14:06:45;;;;;;;6.57;2.28;;;;;;;;;;5043059;28;20037;-85
2023/06/02 14:09:11;;;;;;;9.52;2.55;;;;;;;;;;5039955;28;20101;-87
2023/06/02 14:11:38;;;;;;;10.77;2.15;;;;;;;;;;5018831;28;20045;-87
2023/06/02 14:14:04;;;;;;;6.32;2.10;;;;;;;;;;5038436;28;20049;-87
2023/06/02 14:16:30;;;;;;;8.00;2.10;;;;;;;;;;5033877;28;20065;-87
2023/06/02 14:18:57;;;;;;;8.13;2.20;;;;;;;;;;5046896;28;20384;-86
2023/06/02 14:21:25;;;;;;;7.25;2.13;;;;;;;;;;5046208;28;20046;-88
2023/06/02 14:23:53;;;;;;;7.05;2.05;;;;;;;;;;5027462;28;20510;-88
2023/06/02 14:26:20;;;;;;;7.72;2.30;;;;;;;;;;5046183;28;20037;-87
2023/06/02 14:28:46;;;;;;;6.20;2.20;;;;;;;;;;5044155;28;20034;-86
2023/06/02 14:31:12;;;;;;;9.25;2.40;;;;;;;;;;5027917;28;20097;-87
2023/06/02 14:33:38;;;;;;;6.85;2.10;;;;;;;;;;5045169;28;20053;-88
2023/06/02 14:36:06;;;;;;;6.68;2.42;;;;;;;;;;5012847;28;20532;-88
2023/06/02 14:38:32;;;;;;;8.68;2.38;;;;;;;;;;5008681;28;20068;-88
2023/06/02 14:40:58;;;;;;;9.55;2.70;;;;;;;;;;5028502;28;20089;-86
2023/06/02 14:43:24;;;;;;;7.93;2.38;;;;;;;;;;5036722;28;20151;-86
2023/06/02 14:45:50;;;;;;;9.40;2.42;;;;;;;;;;5025658;28;20056;-86
2023/06/02 14:48:17;;;;;;;10.25;2.58;;;;;;;;;;5006407;28;20049;-86
2023/06/02 14:50:43;;;;;;;7.38;2.42;;;;;;;;;;5007640;28;20050;-85
2023/06/02 14:53:12;;;;;;;10.43;2.30;;;;;;;;;;5037650;28;20125;-85
2023/06/02 14:55:38;;;;;;;7.05;2.40;;;;;;;;;;5017506;28;20053;-87
2023/06/02 14:58:04;;;;;;;11.25;2.80;;;;;;;;;;5022829;28;20042;-87
2023/06/02 15:00:30;;;;;;;7.57;2.50;;;;;;;;;;5007614;28;20056;-88
2023/06/02 15:02:56;;;;;;;10.35;2.50;;;;;;;;;;5024093;28;20122;-88
2023/06/02 15:05:22;;;;;;;9.25;2.53;;;;;;;;;;5015269;28;20034;-88
2023/06/02 15:07:48;;;;;;;7.00;2.40;;;;;;;;;;5044571;28;20187;-89
2023/06/02 15:10:14;;;;;;;9.52;2.85;;;;;;;;;;5040355;28;20101;-88
2023/06/02 15:12:43;;;;;;;6.80;2.38;;;;;;;;;;5026085;28;20128;-88
2023/06/02 15:15:09;;;;;;;10.90;2.90;;;;;;;;;;5039658;28;20045;-88
2023/06/02 15:17:35;;;;;;;9.23;2.60;;;;;;;;;;5028776;28;20052;-88
2023/06/02 15:20:01;;;;;;;8.45;2.70;;;;;;;;;;5046270;28;20069;-87
2023/06/02 15:22:27;;;;;;;6.30;2.50;;;;;;;;;;5013599;28;20064;-89
2023/06/02 15:24:53;;;;;;;8.32;3.17;;;;;;;;;;5046459;28;20053;-89
2023/06/02 15:27:19;;;;;;;8.27;2.90;;;;;;;;;;5046562;28;20049;-86
2023/06/02 15:29:45;;;;;;;9.13;2.83;;;;;;;;;;5028607;28;20424;-90